Time;durP1;ratioP1;P1;durP2;ratioP2;P2;SDS_P1;SDS_P2;PMS_P1;PMS_P2;Temp;Humidity;BMP_temperature;BMP_pressure;BME280_temperature;BME280_humidity;BME280_pressure;Samples;Min_cycle;Max_cycle;Signal;HPM_P1;HPM_P2
2023/12/31 00:00:43;;;;;;;5.30;3.40;;;7.40;99.90;;;;;;5050683;28;20691;-59
2023/12/31 00:03:10;;;;;;;6.73;3.23;;;7.20;99.90;;;;;;5050381;28;20651;-58
2023/12/31 00:05:36;;;;;;;5.27;3.33;;;7.10;99.90;;;;;;5050445;28;20210;-58
2023/12/31 00:08:03;;;;;;;7.63;4.27;;;7.00;99.90;;;;;;5050283;28;20252;-59
2023/12/31 00:10:30;;;;;;;5.17;3.83;;;7.00;99.90;;;;;;5053827;28;20202;-55
2023/12/31 00:12:57;;;;;;;5.43;3.23;;;6.90;99.90;;;;;;5037577;28;20710;-57
2023/12/31 00:15:23;;;;;;;3.53;3.07;;;6.90;99.90;;;;;;5053834;28;20706;-60
2023/12/31 00:17:51;;;;;;;4.27;3.73;;;6.90;99.90;;;;;;5053987;28;20662;-59
2023/12/31 00:20:18;;;;;;;6.30;3.30;;;6.90;99.90;;;;;;5053911;28;20675;-55
2023/12/31 00:22:45;;;;;;;4.80;3.47;;;6.90;99.90;;;;;;5053644;28;20228;-57
2023/12/31 00:25:12;;;;;;;5.40;3.27;;;6.90;99.90;;;;;;5053968;28;20706;-59
2023/12/31 00:27:38;;;;;;;3.50;3.20;;;6.90;99.90;;;;;;5053951;28;20236;-55
2023/12/31 00:30:06;;;;;;;6.70;3.10;;;6.90;99.90;;;;;;5054066;28;20197;-56
2023/12/31 00:32:33;;;;;;;4.43;2.83;;;6.90;99.90;;;;;;5053729;28;20237;-58
2023/12/31 00:35:01;;;;;;;4.73;3.10;;;6.90;99.90;;;;;;5053672;28;20217;-59
2023/12/31 00:37:28;;;;;;;5.00;3.37;;;6.90;99.90;;;;;;5053884;28;20205;-59
2023/12/31 00:39:54;;;;;;;3.87;2.90;;;6.90;99.90;;;;;;5053727;28;20617;-59
2023/12/31 00:42:21;;;;;;;4.83;3.57;;;6.80;99.90;;;;;;5053640;28;20255;-58
2023/12/31 00:44:48;;;;;;;3.60;3.07;;;6.80;99.90;;;;;;5053285;28;20206;-58
2023/12/31 00:47:15;;;;;;;4.43;3.10;;;6.70;99.90;;;;;;5053599;28;20297;-58
2023/12/31 00:49:41;;;;;;;6.43;3.30;;;6.70;99.90;;;;;;5053229;28;20217;-57
2023/12/31 00:52:09;;;;;;;6.50;3.17;;;6.60;99.90;;;;;;5052912;28;20225;-58
2023/12/31 00:54:36;;;;;;;4.73;3.00;;;6.60;99.90;;;;;;5053179;28;20642;-59
2023/12/31 00:57:03;;;;;;;5.20;3.00;;;6.60;99.90;;;;;;5053439;28;20825;-61
2023/12/31 00:59:30;;;;;;;5.47;3.00;;;6.50;99.90;;;;;;5053267;28;20677;-57
2023/12/31 01:01:56;;;;;;;4.83;3.37;;;6.50;99.90;;;;;;5052901;28;20225;-59
2023/12/31 01:04:23;;;;;;;4.17;3.23;;;6.40;99.90;;;;;;5052559;28;20198;-55
2023/12/31 01:06:50;;;;;;;4.60;3.07;;;6.40;99.90;;;;;;5052988;28;20255;-57
2023/12/31 01:09:18;;;;;;;3.73;3.03;;;6.30;99.90;;;;;;5053220;28;20210;-56
2023/12/31 01:11:45;;;;;;;4.67;3.33;;;6.30;99.90;;;;;;5053033;28;20652;-55
2023/12/31 01:14:14;;;;;;;5.50;3.50;;;6.30;99.90;;;;;;5053120;28;20225;-56
2023/12/31 01:16:41;;;;;;;4.93;2.93;;;6.20;99.90;;;;;;5052702;28;20232;-58
2023/12/31 01:19:06;;;;;;;4.10;2.87;;;6.20;99.90;;;;;;5053051;28;20269;-56
2023/12/31 01:21:33;;;;;;;4.27;3.07;;;6.20;99.90;;;;;;5052611;28;20225;-55
2023/12/31 01:24:00;;;;;;;4.03;3.20;;;6.00;99.90;;;;;;5053158;28;20206;-56
2023/12/31 01:26:28;;;;;;;3.80;2.70;;;6.00;99.90;;;;;;5053164;28;20201;-56
2023/12/31 01:28:55;;;;;;;11.63;7.43;;;6.00;99.90;;;;;;5052661;28;20225;-56
2023/12/31 01:31:22;;;;;;;9.30;5.67;;;6.00;99.90;;;;;;5052028;28;20337;-56
2023/12/31 01:33:49;;;;;;;6.73;4.90;;;6.00;99.90;;;;;;5052405;28;20202;-55
2023/12/31 01:36:16;;;;;;;6.67;3.73;;;6.00;99.90;;;;;;5052242;28;20221;-57
2023/12/31 01:38:43;;;;;;;6.23;3.37;;;5.90;99.90;;;;;;5052307;28;20292;-57
2023/12/31 01:41:10;;;;;;;3.47;3.10;;;5.90;99.90;;;;;;5052439;28;20197;-58
2023/12/31 01:43:38;;;;;;;3.43;2.90;;;5.90;99.90;;;;;;5051943;28;20233;-59
2023/12/31 01:46:06;;;;;;;4.80;3.20;;;5.80;99.90;;;;;;5052499;28;20214;-58
2023/12/31 01:48:34;;;;;;;4.67;3.07;;;5.80;99.90;;;;;;5052419;28;20206;-60
2023/12/31 01:51:01;;;;;;;3.73;2.63;;;5.80;99.90;;;;;;5036296;28;20202;-57
2023/12/31 01:53:28;;;;;;;3.73;3.03;;;5.70;99.90;;;;;;5052043;28;20296;-55
2023/12/31 01:55:56;;;;;;;6.93;3.17;;;5.60;99.90;;;;;;5052490;28;20226;-58
2023/12/31 01:58:23;;;;;;;5.33;3.00;;;5.60;99.90;;;;;;5052033;28;20733;-58
2023/12/31 02:00:52;;;;;;;6.50;3.47;;;5.60;99.90;;;;;;5051996;28;20259;-59
2023/12/31 02:03:19;;;;;;;4.27;2.70;;;5.60;99.90;;;;;;5051788;28;20285;-59
2023/12/31 02:05:47;;;;;;;4.73;2.90;;;5.50;99.90;;;;;;5051675;28;20256;-58
2023/12/31 02:08:14;;;;;;;4.37;2.90;;;5.60;99.90;;;;;;5051759;28;20267;-58
2023/12/31 02:10:41;;;;;;;4.50;2.80;;;5.60;99.90;;;;;;5051539;28;20209;-58
2023/12/31 02:13:08;;;;;;;3.37;2.90;;;5.60;99.90;;;;;;5051346;28;20221;-58
2023/12/31 02:15:35;;;;;;;4.37;2.80;;;5.50;99.90;;;;;;5051688;28;20205;-59
2023/12/31 02:18:04;;;;;;;5.43;3.10;;;5.60;99.90;;;;;;5035890;28;20209;-58
2023/12/31 02:20:32;;;;;;;4.53;2.70;;;5.60;99.90;;;;;;5051723;28;20238;-59
2023/12/31 02:22:59;;;;;;;3.57;3.00;;;5.60;99.90;;;;;;5050979;28;20733;-58
2023/12/31 02:25:28;;;;;;;4.50;2.70;;;5.60;99.90;;;;;;5051244;28;20255;-58
2023/12/31 02:27:57;;;;;;;4.47;2.53;;;5.60;99.90;;;;;;5051496;28;20288;-61
2023/12/31 02:30:25;;;;;;;3.40;2.80;;;5.50;99.90;;;;;;5051464;28;20198;-58
2023/12/31 02:32:52;;;;;;;5.43;2.60;;;5.40;99.90;;;;;;5050537;28;20225;-59
2023/12/31 02:35:18;;;;;;;4.00;2.63;;;5.40;99.90;;;;;;5051255;28;20201;-57
2023/12/31 02:37:45;;;;;;;3.77;2.90;;;5.40;99.90;;;;;;5051072;28;20286;-59
2023/12/31 02:40:12;;;;;;;3.43;2.60;;;5.40;99.90;;;;;;5051013;28;20706;-58
2023/12/31 02:42:38;;;;;;;3.47;2.57;;;5.40;99.90;;;;;;5050933;28;20232;-59
2023/12/31 02:45:07;;;;;;;6.87;4.53;;;5.40;99.90;;;;;;5051513;28;20209;-55
2023/12/31 02:47:34;;;;;;;3.83;2.50;;;5.40;99.90;;;;;;5051217;28;20659;-55
2023/12/31 02:50:00;;;;;;;3.83;2.63;;;5.40;99.90;;;;;;5051035;28;20556;-55
2023/12/31 02:52:27;;;;;;;3.00;2.50;;;5.30;99.90;;;;;;5050798;28;20722;-56
2023/12/31 02:54:54;;;;;;;3.73;2.47;;;5.30;99.90;;;;;;5051002;28;20753;-56
2023/12/31 02:57:22;;;;;;;2.40;2.13;;;5.30;99.90;;;;;;5051110;28;20725;-56
2023/12/31 02:59:49;;;;;;;4.53;2.37;;;5.30;99.90;;;;;;5051244;28;20232;-56
2023/12/31 03:02:17;;;;;;;3.40;2.30;;;5.40;99.90;;;;;;5051113;28;20221;-55
2023/12/31 03:04:43;;;;;;;2.63;2.30;;;5.50;99.90;;;;;;5050958;28;20201;-55
2023/12/31 03:07:10;;;;;;;4.00;2.30;;;5.60;99.90;;;;;;5051062;28;20197;-55
2023/12/31 03:09:37;;;;;;;2.73;2.30;;;5.70;99.90;;;;;;5051305;28;20224;-55
2023/12/31 03:12:04;;;;;;;2.87;2.43;;;5.80;99.90;;;;;;5034847;28;20229;-56
2023/12/31 03:14:31;;;;;;;3.40;2.30;;;5.90;99.90;;;;;;5051262;28;20213;-55
2023/12/31 03:16:58;;;;;;;3.23;2.30;;;6.00;99.90;;;;;;5050801;28;20226;-55
2023/12/31 03:19:26;;;;;;;3.53;2.00;;;6.20;99.90;;;;;;5051014;28;20236;-55
2023/12/31 03:21:53;;;;;;;3.43;2.40;;;6.20;99.90;;;;;;5050535;28;20233;-56
2023/12/31 03:24:22;;;;;;;3.30;2.00;;;6.20;99.90;;;;;;5050842;28;20201;-55
2023/12/31 03:26:49;;;;;;;2.63;2.00;;;6.20;99.90;;;;;;5050636;28;20656;-56
2023/12/31 03:29:16;;;;;;;3.40;2.10;;;6.20;99.90;;;;;;5051076;28;20201;-55
2023/12/31 03:31:42;;;;;;;2.20;1.87;;;6.20;99.90;;;;;;5050692;28;20225;-57
2023/12/31 03:34:09;;;;;;;2.93;1.93;;;6.30;99.90;;;;;;5050806;28;20271;-56
2023/12/31 03:36:37;;;;;;;2.90;1.90;;;6.40;99.90;;;;;;5050902;28;20237;-56
2023/12/31 03:39:05;;;;;;;2.27;1.77;;;6.50;99.90;;;;;;5051038;28;20202;-56
2023/12/31 03:41:31;;;;;;;3.67;1.90;;;6.60;99.90;;;;;;5050878;28;20206;-56
2023/12/31 03:43:59;;;;;;;2.60;1.70;;;6.60;99.90;;;;;;5053704;28;20624;-55
2023/12/31 03:46:26;;;;;;;2.07;1.60;;;6.70;99.90;;;;;;5054885;28;20202;-55
2023/12/31 03:48:52;;;;;;;2.70;1.83;;;6.70;99.90;;;;;;5054270;28;20214;-55
2023/12/31 03:51:19;;;;;;;2.60;1.80;;;6.80;99.90;;;;;;5054483;28;20202;-55
2023/12/31 03:53:47;;;;;;;1.77;1.53;;;6.90;99.90;;;;;;5054832;28;20209;-56
2023/12/31 03:56:14;;;;;;;2.07;1.60;;;7.00;99.90;;;;;;5054690;28;20201;-56
2023/12/31 03:58:41;;;;;;;2.50;1.43;;;7.20;99.90;;;;;;5054414;28;20208;-55
2023/12/31 04:01:08;;;;;;;2.43;1.67;;;7.20;99.90;;;;;;5054460;28;20259;-57
2023/12/31 04:03:34;;;;;;;1.97;1.40;;;7.30;99.90;;;;;;5053996;28;20229;-55
2023/12/31 04:06:01;;;;;;;1.93;1.57;;;7.40;99.90;;;;;;5054654;28;20202;-57
2023/12/31 04:08:28;;;;;;;2.40;1.47;;;7.40;99.90;;;;;;5054640;28;20596;-54
2023/12/31 04:10:56;;;;;;;2.40;1.40;;;7.50;99.90;;;;;;5053919;28;20205;-55
2023/12/31 04:13:23;;;;;;;1.53;1.03;;;7.60;99.90;;;;;;5053862;28;20734;-55
2023/12/31 04:15:49;;;;;;;5.83;1.40;;;7.70;99.90;;;;;;5053921;28;20214;-56
2023/12/31 04:18:16;;;;;;;1.23;1.13;;;7.80;99.90;;;;;;5054110;28;20237;-56
2023/12/31 04:20:43;;;;;;;2.00;1.20;;;7.80;99.90;;;;;;5053880;28;20206;-55
2023/12/31 04:23:10;;;;;;;2.30;1.40;;;7.80;99.90;;;;;;5071465;22;20225;-54
2023/12/31 04:25:36;;;;;;;1.50;1.30;;;7.80;99.90;;;;;;5041982;28;20232;-54
2023/12/31 04:28:05;;;;;;;4.23;1.30;;;7.80;99.90;;;;;;5045198;28;20198;-53
2023/12/31 04:30:31;;;;;;;2.10;1.20;;;7.70;99.90;;;;;;5045220;28;20211;-57
2023/12/31 04:32:58;;;;;;;1.67;1.20;;;7.70;99.90;;;;;;5046736;28;20234;-53
2023/12/31 04:35:25;;;;;;;1.33;1.23;;;7.70;99.90;;;;;;5053493;28;20202;-53
2023/12/31 04:37:51;;;;;;;2.07;1.30;;;7.70;99.90;;;;;;5053571;28;20229;-52
2023/12/31 04:40:18;;;;;;;1.47;1.17;;;7.60;99.90;;;;;;5054020;28;20206;-53
2023/12/31 04:42:45;;;;;;;1.73;1.50;;;7.60;99.90;;;;;;5053540;28;20230;-53
2023/12/31 04:45:13;;;;;;;1.37;1.23;;;7.60;99.90;;;;;;5053625;28;20206;-53
2023/12/31 04:47:39;;;;;;;1.67;1.20;;;7.60;99.90;;;;;;5053838;28;20217;-52
2023/12/31 04:50:07;;;;;;;2.33;1.37;;;7.60;99.90;;;;;;5037429;28;20251;-54
2023/12/31 04:52:34;;;;;;;3.33;1.47;;;7.70;99.90;;;;;;5052871;28;20221;-56
2023/12/31 04:55:01;;;;;;;1.70;1.17;;;7.80;99.90;;;;;;5052399;28;20230;-54
2023/12/31 04:57:28;;;;;;;1.40;1.30;;;7.80;99.90;;;;;;5053599;28;20226;-54
2023/12/31 04:59:54;;;;;;;1.80;1.20;;;7.90;99.90;;;;;;5053383;28;20233;-54
2023/12/31 05:02:23;;;;;;;1.80;1.43;;;7.90;99.90;;;;;;5053215;28;20300;-54
2023/12/31 05:04:50;;;;;;;1.50;1.00;;;8.00;99.90;;;;;;5053145;28;20217;-53
2023/12/31 05:07:17;;;;;;;2.60;1.00;;;8.10;99.90;;;;;;5053060;28;20270;-58
2023/12/31 05:09:43;;;;;;;2.97;1.20;;;8.10;99.90;;;;;;5052876;28;20292;-54
2023/12/31 05:12:10;;;;;;;1.13;1.03;;;8.20;99.90;;;;;;5052682;28;20598;-53
2023/12/31 05:14:37;;;;;;;1.70;1.10;;;8.20;99.90;;;;;;5053123;28;20262;-54
2023/12/31 05:17:04;;;;;;;1.20;1.00;;;8.30;99.90;;;;;;5052775;28;20301;-53
2023/12/31 05:19:32;;;;;;;1.43;1.10;;;8.30;99.90;;;;;;5052934;28;20213;-53
2023/12/31 05:21:59;;;;;;;1.13;1.03;;;8.30;99.90;;;;;;5052414;28;20225;-53
2023/12/31 05:24:26;;;;;;;1.77;1.20;;;8.20;99.90;;;;;;5053156;28;20216;-53
2023/12/31 05:26:52;;;;;;;1.23;0.70;;;8.20;99.90;;;;;;5052502;28;20213;-53
2023/12/31 05:29:19;;;;;;;2.90;1.10;;;8.20;99.90;;;;;;5053033;28;20197;-55
2023/12/31 05:31:46;;;;;;;1.67;1.20;;;8.10;99.90;;;;;;5052213;28;20205;-53
2023/12/31 05:34:12;;;;;;;0.80;0.80;;;8.10;99.90;;;;;;5052306;28;20212;-53
2023/12/31 05:36:40;;;;;;;1.47;0.93;;;8.00;99.90;;;;;;5052518;28;20209;-54
2023/12/31 05:39:08;;;;;;;1.30;1.07;;;8.00;99.90;;;;;;5036205;28;20204;-54
2023/12/31 05:41:36;;;;;;;1.40;0.97;;;7.90;99.90;;;;;;5052427;28;20205;-56
2023/12/31 05:44:03;;;;;;;1.10;0.90;;;7.90;99.90;;;;;;5052505;28;20197;-57
2023/12/31 05:46:30;;;;;;;1.47;0.90;;;8.00;99.90;;;;;;5052411;28;20209;-53
2023/12/31 05:48:57;;;;;;;1.20;1.00;;;8.10;99.90;;;;;;5052056;28;20664;-53
2023/12/31 05:51:23;;;;;;;1.20;0.97;;;8.20;99.90;;;;;;5051824;28;20251;-54
2023/12/31 05:53:51;;;;;;;1.13;0.80;;;8.20;99.90;;;;;;5051636;28;20238;-54
2023/12/31 05:56:18;;;;;;;1.40;1.00;;;8.30;99.90;;;;;;5052116;28;20205;-54
2023/12/31 05:58:46;;;;;;;1.10;1.00;;;8.30;99.90;;;;;;5052003;28;20225;-53
2023/12/31 06:01:13;;;;;;;1.10;0.90;;;8.40;99.90;;;;;;5051778;28;20255;-55
2023/12/31 06:03:40;;;;;;;1.10;0.77;;;8.40;99.90;;;;;;5051707;28;20221;-54
2023/12/31 06:06:07;;;;;;;0.93;0.87;;;8.40;99.90;;;;;;5050932;28;20675;-54
2023/12/31 06:08:34;;;;;;;1.53;0.90;;;8.30;99.90;;;;;;5051469;28;20304;-55
2023/12/31 06:11:02;;;;;;;1.07;0.90;;;8.40;99.90;;;;;;5051588;28;20217;-54
2023/12/31 06:13:29;;;;;;;0.97;0.93;;;8.30;99.90;;;;;;5051327;28;20225;-53
2023/12/31 06:15:56;;;;;;;1.90;1.00;;;8.30;99.90;;;;;;5051394;28;20213;-55
2023/12/31 06:18:22;;;;;;;1.00;0.83;;;8.30;99.90;;;;;;5051416;28;20565;-53
2023/12/31 06:20:49;;;;;;;1.53;1.20;;;8.20;99.90;;;;;;5051105;28;20675;-53
2023/12/31 06:23:15;;;;;;;1.03;0.90;;;8.20;99.90;;;;;;5051065;28;20248;-56
2023/12/31 06:25:42;;;;;;;1.10;1.00;;;8.30;99.90;;;;;;5051401;28;20260;-56
2023/12/31 06:28:10;;;;;;;2.20;1.10;;;8.40;99.90;;;;;;5035338;28;20213;-54
2023/12/31 06:30:36;;;;;;;1.57;1.10;;;8.40;99.90;;;;;;5051317;28;20206;-54
2023/12/31 06:33:03;;;;;;;1.53;1.03;;;8.50;99.90;;;;;;5050774;28;20233;-53
2023/12/31 06:35:30;;;;;;;2.00;1.30;;;8.50;99.90;;;;;;5051254;28;20210;-57
2023/12/31 06:37:57;;;;;;;1.27;1.03;;;8.60;99.90;;;;;;5051247;28;20225;-54
2023/12/31 06:40:23;;;;;;;2.20;1.00;;;8.70;99.90;;;;;;5051270;28;20210;-53
2023/12/31 06:42:50;;;;;;;1.30;1.00;;;8.70;99.90;;;;;;5050724;28;20233;-57
2023/12/31 06:45:18;;;;;;;1.70;1.30;;;8.70;99.90;;;;;;5050917;28;20667;-55
2023/12/31 06:47:45;;;;;;;1.60;1.40;;;8.70;99.90;;;;;;5050907;28;20671;-53
2023/12/31 06:50:11;;;;;;;2.10;1.70;;;8.80;99.90;;;;;;5050809;28;20720;-53
2023/12/31 06:52:38;;;;;;;1.77;1.20;;;8.80;99.90;;;;;;5050643;28;20236;-53
2023/12/31 06:55:06;;;;;;;1.40;1.27;;;8.80;99.90;;;;;;5051025;28;20201;-55
2023/12/31 06:57:33;;;;;;;2.03;1.40;;;8.80;99.90;;;;;;5050973;28;20225;-53
2023/12/31 07:00:00;;;;;;;2.90;1.40;;;8.80;99.90;;;;;;5050757;28;20209;-54
2023/12/31 07:02:28;;;;;;;1.93;1.10;;;8.80;99.90;;;;;;5050597;28;20232;-56
2023/12/31 07:04:55;;;;;;;2.17;1.50;;;8.80;99.90;;;;;;5050810;28;20534;-56
2023/12/31 07:07:21;;;;;;;1.93;1.30;;;8.80;99.90;;;;;;5050797;28;20288;-53
2023/12/31 07:09:48;;;;;;;1.57;1.30;;;8.50;99.90;;;;;;5050588;28;20209;-53
2023/12/31 07:12:14;;;;;;;1.50;1.33;;;8.50;99.90;;;;;;5050554;28;20229;-53
2023/12/31 07:14:41;;;;;;;3.77;1.43;;;8.60;99.90;;;;;;5050635;28;20633;-54
2023/12/31 07:17:08;;;;;;;1.60;1.20;;;8.60;99.90;;;;;;5050361;28;20624;-53
2023/12/31 07:19:36;;;;;;;2.30;1.10;;;8.70;99.90;;;;;;5054790;28;20445;-53
2023/12/31 07:22:03;;;;;;;1.53;1.20;;;8.70;99.90;;;;;;5054344;28;20241;-53
2023/12/31 07:24:32;;;;;;;1.80;1.53;;;8.80;99.90;;;;;;5054542;28;20209;-53
2023/12/31 07:26:59;;;;;;;1.80;1.30;;;8.80;99.90;;;;;;5054661;28;20763;-53
2023/12/31 07:29:26;;;;;;;2.63;1.50;;;8.80;99.90;;;;;;5054874;28;20206;-54
2023/12/31 07:31:53;;;;;;;4.73;2.60;;;8.90;99.90;;;;;;5054299;28;20636;-54
2023/12/31 07:34:19;;;;;;;3.77;2.30;;;8.90;99.90;;;;;;5054770;28;20236;-55
2023/12/31 07:36:47;;;;;;;3.23;1.83;;;8.90;99.90;;;;;;5054656;28;20232;-54
2023/12/31 07:39:14;;;;;;;2.63;1.63;;;8.90;99.90;;;;;;5054580;28;20221;-54
2023/12/31 07:41:41;;;;;;;3.10;1.77;;;8.90;99.90;;;;;;5053470;28;20381;-64
2023/12/31 07:44:07;;;;;;;1.80;1.60;;;9.00;99.90;;;;;;5044458;28;20209;-57
2023/12/31 07:46:34;;;;;;;4.70;2.20;;;9.00;99.90;;;;;;5054204;28;20675;-53
2023/12/31 07:49:01;;;;;;;2.17;1.87;;;9.10;99.90;;;;;;5054138;28;20202;-53
2023/12/31 07:51:27;;;;;;;2.90;1.73;;;9.00;99.90;;;;;;5054131;28;20202;-55
2023/12/31 07:53:55;;;;;;;2.60;2.07;;;9.10;99.90;;;;;;5053842;28;20247;-53
2023/12/31 07:56:22;;;;;;;2.43;2.00;;;9.20;99.90;;;;;;5054165;28;20210;-53
2023/12/31 07:58:49;;;;;;;2.83;2.20;;;9.20;99.90;;;;;;5054029;28;20604;-53
2023/12/31 08:01:15;;;;;;;3.17;2.33;;;9.20;99.90;;;;;;5054211;28;20232;-53
2023/12/31 08:03:42;;;;;;;2.23;1.70;;;9.30;99.90;;;;;;5053876;28;20233;-56
2023/12/31 08:06:09;;;;;;;4.17;2.00;;;9.20;99.90;;;;;;5053822;28;20718;-53
2023/12/31 08:08:36;;;;;;;2.13;1.90;;;9.20;99.90;;;;;;5054075;28;20198;-55
2023/12/31 08:11:04;;;;;;;3.20;1.53;;;9.20;99.90;;;;;;5053564;28;20589;-53
2023/12/31 08:13:31;;;;;;;2.27;1.67;;;9.30;99.90;;;;;;5053502;28;20260;-53
2023/12/31 08:15:58;;;;;;;1.47;1.37;;;9.40;99.90;;;;;;5053805;28;20213;-52
2023/12/31 08:18:24;;;;;;;2.20;1.27;;;9.50;99.90;;;;;;5054040;28;20640;-53
2023/12/31 08:20:51;;;;;;;1.40;1.20;;;9.50;99.90;;;;;;5053931;28;20221;-53
2023/12/31 08:23:19;;;;;;;1.50;1.10;;;9.60;99.90;;;;;;5053253;28;20275;-52
2023/12/31 08:25:45;;;;;;;1.87;1.40;;;9.80;99.90;;;;;;5053318;28;20583;-53
2023/12/31 08:28:13;;;;;;;1.63;1.20;;;9.90;99.90;;;;;;5037401;28;20292;-57
2023/12/31 08:30:40;;;;;;;1.50;1.10;;;10.00;99.90;;;;;;5052709;28;20209;-57
2023/12/31 08:33:07;;;;;;;2.00;1.40;;;10.10;99.90;;;;;;5053199;28;20299;-54
2023/12/31 08:35:33;;;;;;;2.47;1.00;;;10.30;99.90;;;;;;5053219;28;20263;-53
2023/12/31 08:38:00;;;;;;;2.63;1.73;;;10.40;99.90;;;;;;5053782;28;20271;-53
2023/12/31 08:40:27;;;;;;;1.67;1.33;;;10.60;99.90;;;;;;5053263;28;20214;-55
2023/12/31 08:42:53;;;;;;;1.57;1.17;;;10.70;99.90;;;;;;5052762;28;20687;-55
2023/12/31 08:45:22;;;;;;;1.67;1.20;;;10.90;99.90;;;;;;5052964;28;20631;-55
2023/12/31 08:47:49;;;;;;;1.50;1.30;;;11.00;99.90;;;;;;5053431;28;20293;-59
2023/12/31 08:50:15;;;;;;;1.30;1.10;;;11.10;99.90;;;;;;5053602;28;20198;-56
2023/12/31 08:52:44;;;;;;;7.57;5.90;;;11.20;99.90;;;;;;5052580;28;20283;-56
2023/12/31 08:55:11;;;;;;;9.03;7.57;;;11.40;99.90;;;;;;5052865;28;20233;-57
2023/12/31 08:57:41;;;;;;;29.70;23.03;;;11.50;99.90;;;;;;5052891;28;20682;-55
2023/12/31 09:00:08;;;;;;;3.10;2.10;;;11.60;99.90;;;;;;5052856;28;20212;-55
2023/12/31 09:02:36;;;;;;;1.60;1.30;;;11.70;99.90;;;;;;5052776;28;20613;-55
2023/12/31 09:05:04;;;;;;;2.87;1.37;;;11.80;99.90;;;;;;5052659;28;20678;-57
2023/12/31 09:07:31;;;;;;;1.10;1.00;;;11.90;99.90;;;;;;5052821;28;20470;-53
2023/12/31 09:09:58;;;;;;;1.70;1.20;;;12.00;99.90;;;;;;5052989;28;20630;-53
2023/12/31 09:12:25;;;;;;;4.10;2.63;;;12.20;99.90;;;;;;5052573;28;20236;-53
2023/12/31 09:14:52;;;;;;;127.93;67.07;;;12.30;99.90;;;;;;5052291;28;20304;-54
2023/12/31 09:17:19;;;;;;;6.27;4.13;;;12.30;99.90;;;;;;5052556;28;20606;-57
2023/12/31 09:19:47;;;;;;;2.20;1.30;;;12.40;99.90;;;;;;5052362;28;20703;-53
2023/12/31 09:22:14;;;;;;;2.07;1.30;;;12.50;99.90;;;;;;5035718;28;20255;-53
2023/12/31 09:24:41;;;;;;;1.97;1.23;;;12.60;99.90;;;;;;5052635;28;20233;-52
2023/12/31 09:27:08;;;;;;;1.10;0.90;;;12.70;99.90;;;;;;5052109;28;20249;-57
2023/12/31 09:29:36;;;;;;;1.90;1.33;;;12.80;99.90;;;;;;5052479;28;20225;-52
2023/12/31 09:32:04;;;;;;;1.77;1.60;;;13.00;99.90;;;;;;5051899;28;20231;-53
2023/12/31 09:34:31;;;;;;;3.37;1.97;;;13.10;99.90;;;;;;5051859;28;20256;-53
2023/12/31 09:36:59;;;;;;;1.73;1.40;;;13.10;99.90;;;;;;5052221;28;20201;-54
2023/12/31 09:39:26;;;;;;;2.20;1.27;;;13.20;99.90;;;;;;5052215;28;20217;-56
2023/12/31 09:41:54;;;;;;;1.77;1.23;;;13.20;99.90;;;;;;5051518;28;20738;-53
2023/12/31 09:44:21;;;;;;;2.43;1.10;;;13.20;99.90;;;;;;5051975;28;20205;-53
2023/12/31 09:47:03;;;;;;;1.30;1.17;;;13.20;99.90;;;;;;5051804;28;20209;-58
2023/12/31 09:49:30;;;;;;;1.33;1.03;;;13.30;99.90;;;;;;5039769;28;20251;-53
2023/12/31 09:51:59;;;;;;;1.30;1.10;;;13.40;99.90;;;;;;5051632;28;20228;-53
2023/12/31 09:54:26;;;;;;;1.27;1.10;;;13.30;99.90;;;;;;5051652;28;20208;-53
2023/12/31 09:56:53;;;;;;;1.50;1.13;;;13.30;99.90;;;;;;5051656;28;20255;-54
2023/12/31 09:59:21;;;;;;;1.43;1.10;;;13.40;99.90;;;;;;5051660;28;20217;-53
2023/12/31 10:01:48;;;;;;;3.47;2.10;;;13.50;99.90;;;;;;5051418;28;20236;-53
2023/12/31 10:04:15;;;;;;;2.53;1.53;;;13.50;99.90;;;;;;5035348;28;20208;-56
2023/12/31 10:06:43;;;;;;;3.23;1.67;;;13.60;99.90;;;;;;5051988;28;20218;-57
2023/12/31 10:09:14;;;;;;;3.57;1.50;;;13.60;99.90;;;;;;5051216;28;20202;-55
2023/12/31 10:11:42;;;;;;;1.67;1.30;;;13.70;99.90;;;;;;5051396;28;20217;-54
2023/12/31 10:14:09;;;;;;;1.37;1.10;;;13.90;99.90;;;;;;5051363;28;20213;-52
2023/12/31 10:16:40;;;;;;;3.87;2.90;;;14.10;99.90;;;;;;5051774;28;20213;-52
2023/12/31 10:19:07;;;;;;;1.87;1.23;;;14.10;99.90;;;;;;5051082;28;20221;-52
2023/12/31 10:21:34;;;;;;;2.80;1.40;;;14.20;99.90;;;;;;5051157;28;20288;-53
2023/12/31 10:24:01;;;;;;;2.40;0.90;;;14.40;99.90;;;;;;5051315;28;20217;-55
2023/12/31 10:26:29;;;;;;;17.33;13.87;;;14.50;99.90;;;;;;5051234;28;20689;-52
2023/12/31 10:28:56;;;;;;;1.47;1.20;;;14.60;99.90;;;;;;5050959;28;20205;-52
2023/12/31 10:31:24;;;;;;;1.20;0.97;;;14.70;99.90;;;;;;5051223;28;20213;-54
2023/12/31 10:33:51;;;;;;;1.53;1.30;;;14.80;99.90;;;;;;5051098;28;20324;-58
2023/12/31 10:36:21;;;;;;;3.00;2.10;;;14.80;99.90;;;;;;5051447;28;20224;-58
2023/12/31 10:38:49;;;;;;;3.63;1.80;;;14.80;99.90;;;;;;5051079;28;20230;-59
2023/12/31 10:41:20;;;;;;;1.40;1.23;;;14.80;99.90;;;;;;5034505;28;20202;-59
2023/12/31 10:43:49;;;;;;;2.07;1.50;;;14.90;99.90;;;;;;5051256;28;20261;-60
2023/12/31 10:46:17;;;;;;;1.90;1.15;;;14.80;99.90;;;;;;5034661;28;20205;-59
2023/12/31 10:48:48;;;;;;;1.90;1.23;;;14.90;99.90;;;;;;5051031;28;20201;-58
2023/12/31 10:51:22;;;;;;;1.77;1.30;;;15.00;99.90;;;;;;5050381;28;20229;-60
2023/12/31 10:53:50;;;;;;;2.40;1.20;;;15.00;99.90;;;;;;5049913;28;20229;-60
2023/12/31 10:56:18;;;;;;;4.63;1.10;;;15.00;99.90;;;;;;5034830;28;20225;-59
2023/12/31 10:58:46;;;;;;;1.87;1.30;;;15.00;99.90;;;;;;5051074;28;20248;-58
2023/12/31 11:01:15;;;;;;;1.80;1.20;;;15.00;99.90;;;;;;5050803;28;20201;-58
2023/12/31 11:03:43;;;;;;;2.27;1.07;;;15.10;99.90;;;;;;5050697;28;20236;-58
2023/12/31 11:06:11;;;;;;;1.60;1.30;;;15.10;99.90;;;;;;5050681;28;20255;-60
2023/12/31 11:08:38;;;;;;;1.10;1.00;;;15.10;99.90;;;;;;5050853;28;20208;-60
2023/12/31 11:11:05;;;;;;;1.70;1.30;;;15.10;99.90;;;;;;5050866;28;20210;-56
2023/12/31 11:13:34;;;;;;;1.53;1.43;;;15.10;99.90;;;;;;5050273;28;20229;-56
2023/12/31 11:16:04;;;;;;;1.70;1.30;;;15.10;99.90;;;;;;5050961;28;20217;-53
2023/12/31 11:18:54;;;;;;;1.80;1.33;;;15.20;99.90;;;;;;5050776;28;20305;-53
2023/12/31 11:21:40;;;;;;;1.97;1.27;;;15.20;99.90;;;;;;5035169;28;20198;-53
2023/12/31 11:24:14;;;;;;;2.70;1.20;;;15.20;99.90;;;;;;5050000;28;20275;-54
2023/12/31 11:26:41;;;;;;;1.13;1.00;;;15.10;99.90;;;;;;5050706;28;20206;-54
2023/12/31 11:29:10;;;;;;;1.30;1.20;;;15.30;99.90;;;;;;5050390;28;20201;-53
2023/12/31 11:31:40;;;;;;;3.33;1.50;;;15.30;99.90;;;;;;5050165;28;20205;-54
2023/12/31 11:34:09;;;;;;;1.80;1.20;;;15.30;99.90;;;;;;5050331;28;20714;-54
2023/12/31 11:36:35;;;;;;;2.10;1.43;;;15.30;99.90;;;;;;5050393;28;20624;-54
2023/12/31 11:39:06;;;;;;;1.50;1.37;;;15.30;99.90;;;;;;5050469;28;20229;-55
2023/12/31 11:41:34;;;;;;;2.70;1.20;;;15.30;99.90;;;;;;5050513;28;20250;-56
2023/12/31 11:44:01;;;;;;;2.20;1.50;;;15.30;99.90;;;;;;5050281;28;20201;-54
2023/12/31 11:46:33;;;;;;;1.73;1.50;;;15.10;99.90;;;;;;5050495;28;20271;-56
2023/12/31 11:48:59;;;;;;;2.67;2.27;;;15.00;99.90;;;;;;5050608;28;20309;-54
2023/12/31 11:51:49;;;;;;;4.73;2.20;;;14.90;99.90;;;;;;5050200;28;20275;-56
2023/12/31 11:54:18;;;;;;;4.63;2.87;;;14.80;99.90;;;;;;5049928;28;20725;-54
2023/12/31 11:56:46;;;;;;;2.83;1.43;;;14.80;99.90;;;;;;5050305;28;20213;-54
2023/12/31 11:59:13;;;;;;;2.77;1.87;;;14.70;99.90;;;;;;5050312;28;20338;-54
2023/12/31 12:01:43;;;;;;;2.30;1.70;;;14.40;99.90;;;;;;5050238;28;20206;-54
2023/12/31 12:04:10;;;;;;;3.47;1.30;;;14.00;99.90;;;;;;5050136;28;20289;-54
2023/12/31 12:06:38;;;;;;;2.40;1.40;;;13.60;99.90;;;;;;5053761;28;20698;-55
2023/12/31 12:09:05;;;;;;;2.53;1.40;;;13.30;99.90;;;;;;5053967;28;20288;-55
2023/12/31 12:11:32;;;;;;;1.83;1.23;;;13.00;99.90;;;;;;5054004;28;20202;-53
2023/12/31 12:13:59;;;;;;;2.70;1.40;;;12.80;99.90;;;;;;5054107;28;20206;-56
2023/12/31 12:16:27;;;;;;;2.23;1.53;;;12.60;99.90;;;;;;5054344;28;20228;-54
2023/12/31 12:18:58;;;;;;;4.10;1.70;;;12.40;99.90;;;;;;5053826;28;20229;-55
2023/12/31 12:21:25;;;;;;;2.10;1.60;;;12.30;99.90;;;;;;5054031;28;20209;-54
2023/12/31 12:23:54;;;;;;;3.97;1.67;;;12.10;99.90;;;;;;5053721;28;20233;-54
2023/12/31 12:26:22;;;;;;;1.80;1.30;;;12.10;99.90;;;;;;5053824;28;20205;-55
2023/12/31 12:28:49;;;;;;;2.03;1.30;;;11.90;99.90;;;;;;5054040;28;20651;-54
2023/12/31 12:31:17;;;;;;;5.47;3.87;;;11.90;99.90;;;;;;5053777;28;20588;-53
2023/12/31 12:33:44;;;;;;;3.07;2.27;;;11.90;99.90;;;;;;5055522;28;20671;-53
2023/12/31 12:36:12;;;;;;;5.97;5.37;;;11.90;99.90;;;;;;5055199;28;20256;-54
2023/12/31 12:38:39;;;;;;;1.40;1.00;;;11.80;99.90;;;;;;5055521;28;20209;-53
2023/12/31 12:41:08;;;;;;;0.77;0.77;;;11.70;99.90;;;;;;5055425;28;20411;-54
2023/12/31 12:43:35;;;;;;;1.77;0.70;;;11.70;99.90;;;;;;5053248;28;20703;-52
2023/12/31 12:46:05;;;;;;;1.90;1.47;;;11.70;99.90;;;;;;5053387;28;20205;-53
2023/12/31 12:48:33;;;;;;;2.00;1.60;;;11.60;99.90;;;;;;5053542;28;20206;-53
2023/12/31 12:51:00;;;;;;;1.17;1.07;;;11.70;99.90;;;;;;5053486;28;20290;-54
2023/12/31 12:53:27;;;;;;;2.63;1.17;;;11.60;99.90;;;;;;5052899;28;20741;-53